Eaton Center, NH

11:52 AM EST on February 22, 2017 (GMT -0500)
Eaton Center, NH | | Change Station

Elev 528 ft 43.93 °N, 71.08 °W | Updated 11 seconds ago

Partly Cloudy
Partly Cloudy
50.9 °F
Feels Like 50.9 °F
N
0.0
Wind Variable Wind from SE
Gusts 0.0 mph

Today
High -- | Low -- °F
--% Chance of Precip.
Yesterday
High -- | Low -- °F
Precip. -- in
Pressure 29.97 in
Visibility 10.0 miles
Clouds Clear
Dew Point 10 °F
Humidity 19%
Rainfall 0.00 in
Snow Depth Not available.
6:32 AM 5:23 PM
Waning Crescent, 16% visible
METAR KIZG 221554Z AUTO 00000KT 10SM CLR 07/M05 A2996 RMK AO2 SLP149 T00721050
Pressure 29.97 in
Visibility 10.0 miles
Clouds Clear
Dew Point 10 °F
Humidity 19%
Rainfall 0.00 in
Snow Depth Not available.
6:32 AM 5:23 PM
Waning Crescent, 16% visible
METAR KIZG 221554Z AUTO 00000KT 10SM CLR 07/M05 A2996 RMK AO2 SLP149 T00721050

Get Your Daily Forecast Email!

Thanks for signing up!

Be on the lookout for a verification email in your inbox.

You'll start receiving the daily forecast at 8 AM.

×

10-Day Weather Forecast

Almanac

Astronomy

Feb. 22, 2017 Rise Set
Actual Time
Civil Twilight
Nautical Twilight
Astronomical Twilight
Moon
Length of Visible Light
Length of Day
Tomorrow will be .
, % of the Moon is Illuminated

Today's Extremes

State Highs State Lows

Community

WunderPhotos

Upload Photos

1,962,540 photos uploaded!

WunderBlog® & News

Nearby

Air Quality

  Air Quality AQ Index Pollutant
Not available.

Snow Depth

Station Depth Elevation

Earthquake Activity

City Distance Mag. Time & Date
Minimum magnitude displayed is 2.5.

Coastal Water Temperatures

Place Temperature

Stations

Nearby Weather Stations

Station Location Temp. Windchill Dew Point Humidity Wind Precip. Elev Updated Type
                   

Watches & Warnings

There are currently no watches in effect.